Time;durP1;ratioP1;P1;durP2;ratioP2;P2;SDS_P1;SDS_P2;PMS_P1;PMS_P2;Temp;Humidity;BMP_temperature;BMP_pressure;BME280_temperature;BME280_humidity;BME280_pressure;Samples;Min_cycle;Max_cycle;Signal;HPM_P1;HPM_P2
2022/01/17 00:01:29;;;;;;;66.68;52.78;;;17.50;52.90;;;;;;5017859;27;96986;-73
2022/01/17 00:03:55;;;;;;;67.45;53.47;;;17.50;52.80;;;;;;5014606;27;95147;-73
2022/01/17 00:06:20;;;;;;;67.80;53.20;;;17.50;52.90;;;;;;5014656;27;94769;-73
2022/01/17 00:08:46;;;;;;;66.63;53.28;;;17.50;52.90;;;;;;5008987;27;95648;-73
2022/01/17 00:11:14;;;;;;;68.47;53.13;;;17.40;52.90;;;;;;5015067;27;95855;-73
2022/01/17 00:13:40;;;;;;;65.13;52.50;;;17.40;52.90;;;;;;5009176;27;100797;-73
2022/01/17 00:16:14;;;;;;;68.38;53.72;;;17.40;53.00;;;;;;5014543;27;95961;-73
2022/01/17 00:21:12;;;;;;;69.32;53.15;;;17.40;53.10;;;;;;5019864;27;95456;-73
2022/01/17 00:23:38;;;;;;;66.00;52.95;;;17.40;53.20;;;;;;5000490;27;94961;-73
2022/01/17 00:26:04;;;;;;;69.47;53.47;;;17.40;53.20;;;;;;5011826;27;94794;-73
2022/01/17 00:28:30;;;;;;;66.22;52.67;;;17.30;53.30;;;;;;5005078;27;95415;-73
2022/01/17 00:30:56;;;;;;;65.90;52.42;;;17.40;53.40;;;;;;5007451;27;95431;-73
2022/01/17 00:33:40;;;;;;;66.30;52.53;;;17.30;53.10;;;;;;4512093;27;10001582;-73
2022/01/17 00:36:06;;;;;;;68.28;52.95;;;17.30;53.30;;;;;;1348097;27;10097110;-73
2022/01/17 00:38:31;;;;;;;65.90;52.70;;;17.30;53.20;;;;;;5013194;27;95345;-73
2022/01/17 00:40:57;;;;;;;65.95;52.88;;;17.30;54.00;;;;;;5017008;27;95000;-73
2022/01/17 00:43:23;;;;;;;69.63;53.47;;;17.20;53.20;;;;;;4994120;27;96881;-73
2022/01/17 00:45:48;;;;;;;67.03;52.80;;;17.20;53.40;;;;;;5008275;27;98205;-73
2022/01/17 00:48:14;;;;;;;69.28;53.28;;;17.30;53.40;;;;;;4995784;27;95321;-73
2022/01/17 00:50:40;;;;;;;66.72;53.30;;;17.30;53.40;;;;;;4995211;27;93879;-73
2022/01/17 00:53:07;;;;;;;66.35;52.70;;;17.20;53.20;;;;;;5018329;27;96248;-73
2022/01/17 00:55:36;;;;;;;67.95;53.33;;;17.20;53.30;;;;;;5008593;27;95807;-73
2022/01/17 00:58:02;;;;;;;67.22;53.00;;;17.20;53.40;;;;;;5006685;27;96489;-73
2022/01/17 01:00:28;;;;;;;66.60;53.50;;;17.20;53.70;;;;;;4993333;27;96137;-73
2022/01/17 01:02:54;;;;;;;67.32;53.25;;;17.20;53.40;;;;;;5013335;27;95054;-73
2022/01/17 01:05:20;;;;;;;67.00;52.85;;;17.20;53.70;;;;;;5011963;27;94863;-73
2022/01/17 01:07:46;;;;;;;65.63;53.00;;;17.20;53.60;;;;;;5009415;27;94785;-73
2022/01/17 01:10:12;;;;;;;66.93;52.80;;;17.20;53.70;;;;;;5013749;27;94606;-73
2022/01/17 01:12:39;;;;;;;66.68;53.00;;;17.10;53.60;;;;;;5013344;27;95665;-73
2022/01/17 01:15:13;;;;;;;67.22;52.83;;;17.10;53.70;;;;;;5008604;27;97328;-73
2022/01/17 01:17:53;;;;;;;69.60;54.22;;;17.10;53.70;;;;;;5016649;27;97161;-73
2022/01/17 01:28:44;;;;;;;67.22;52.88;;;17.10;53.90;;;;;;5007221;27;96065;-73
2022/01/17 01:31:18;;;;;;;65.72;52.50;;;17.10;53.80;;;;;;5007664;27;97059;-73
2022/01/17 01:33:51;;;;;;;67.50;53.22;;;17.10;53.70;;;;;;4993413;28;96398;-73
2022/01/17 01:36:24;;;;;;;67.05;52.95;;;17.00;54.40;;;;;;5015516;27;96253;-73
2022/01/17 01:38:50;;;;;;;66.18;52.85;;;17.00;53.90;;;;;;5012369;27;95134;-73
2022/01/17 01:41:15;;;;;;;66.35;52.67;;;17.00;53.80;;;;;;4994246;27;95937;-73
2022/01/17 01:43:41;;;;;;;66.78;53.20;;;17.00;53.90;;;;;;5012776;27;97251;-73
2022/01/17 01:46:07;;;;;;;67.30;52.97;;;17.00;53.60;;;;;;4994011;27;97375;-73
2022/01/17 01:48:35;;;;;;;67.05;53.13;;;17.00;53.80;;;;;;5012955;27;96780;-73
2022/01/17 01:51:01;;;;;;;66.25;52.90;;;17.00;53.80;;;;;;4996973;27;95127;-73
2022/01/17 01:53:27;;;;;;;66.32;53.45;;;17.00;53.80;;;;;;5010342;27;95592;-73
2022/01/17 01:55:55;;;;;;;66.55;53.28;;;16.90;53.70;;;;;;5006124;27;96214;-73
2022/01/17 01:58:22;;;;;;;65.43;52.42;;;16.90;53.80;;;;;;4989505;27;96257;-73
2022/01/17 02:00:48;;;;;;;66.45;53.08;;;17.00;54.00;;;;;;5015048;27;95762;-73
2022/01/17 02:03:14;;;;;;;67.07;52.72;;;16.90;54.20;;;;;;5008283;27;95957;-73
2022/01/17 02:05:40;;;;;;;66.18;52.72;;;16.90;54.00;;;;;;5012428;27;94683;-73
2022/01/17 02:08:09;;;;;;;66.95;53.20;;;16.90;54.00;;;;;;5014687;27;94863;-73
2022/01/17 02:10:35;;;;;;;66.32;52.90;;;16.90;54.10;;;;;;5007557;27;94931;-73
2022/01/17 02:13:01;;;;;;;64.22;52.35;;;16.90;54.00;;;;;;5010950;27;96439;-73
2022/01/17 02:15:26;;;;;;;66.15;53.15;;;16.90;54.10;;;;;;4994967;28;97963;-73
2022/01/17 02:17:56;;;;;;;65.95;52.92;;;16.90;54.10;;;;;;5008749;27;94986;-73
2022/01/17 02:20:35;;;;;;;65.28;52.78;;;16.90;54.10;;;;;;5009981;27;95512;-73
2022/01/17 02:23:04;;;;;;;65.97;52.60;;;16.90;54.00;;;;;;5009868;27;95187;-73
2022/01/17 02:25:30;;;;;;;66.57;52.75;;;16.90;54.20;;;;;;5011767;27;95417;-73
2022/01/17 02:27:57;;;;;;;67.07;53.20;;;16.90;54.00;;;;;;5011559;27;96558;-73
2022/01/17 02:30:23;;;;;;;66.43;53.03;;;16.90;54.00;;;;;;5007852;27;94216;-73
2022/01/17 02:32:49;;;;;;;65.53;52.33;;;16.80;54.20;;;;;;4992797;27;99889;-73
2022/01/17 02:35:18;;;;;;;65.05;52.58;;;16.80;54.00;;;;;;5012482;27;95321;-73
2022/01/17 02:37:45;;;;;;;67.60;52.33;;;16.90;54.20;;;;;;5005626;27;99855;-73
2022/01/17 02:40:15;;;;;;;66.03;52.42;;;16.80;54.10;;;;;;5013748;27;95490;-73
2022/01/17 02:42:41;;;;;;;66.05;53.33;;;16.80;54.10;;;;;;5006542;27;95754;-73
2022/01/17 02:45:20;;;;;;;63.92;52.10;;;16.80;54.90;;;;;;5013395;27;94747;-75
2022/01/17 02:47:46;;;;;;;66.45;52.83;;;16.80;54.20;;;;;;4999530;27;97865;-73
2022/01/17 02:50:12;;;;;;;66.88;52.47;;;16.80;54.20;;;;;;5013941;27;94968;-73
2022/01/17 02:52:38;;;;;;;66.03;52.08;;;16.80;54.20;;;;;;5009903;27;96066;-73
2022/01/17 02:55:04;;;;;;;65.35;52.55;;;16.80;54.10;;;;;;5015136;27;96190;-73
2022/01/17 02:57:33;;;;;;;64.95;52.20;;;16.80;54.10;;;;;;5011460;27;95465;-73
2022/01/17 02:59:59;;;;;;;66.57;52.97;;;16.80;54.20;;;;;;5010943;27;95041;-73
2022/01/17 03:02:24;;;;;;;65.13;52.42;;;16.80;54.30;;;;;;5012793;27;96032;-73
2022/01/17 03:04:50;;;;;;;64.10;51.95;;;16.80;54.10;;;;;;5010976;27;97645;-73
2022/01/17 03:07:16;;;;;;;63.55;52.20;;;16.80;54.20;;;;;;5011328;27;94773;-73
2022/01/17 03:10:01;;;;;;;65.63;52.88;;;16.80;54.20;;;;;;5015424;27;95459;-73
2022/01/17 03:12:26;;;;;;;65.10;52.47;;;16.80;54.40;;;;;;5014238;27;97059;-73
2022/01/17 03:14:52;;;;;;;66.32;53.15;;;16.70;54.30;;;;;;5003635;27;95183;-73
2022/01/17 03:17:17;;;;;;;65.85;53.03;;;16.80;54.30;;;;;;5012319;27;94952;-73
2022/01/17 03:19:43;;;;;;;65.05;52.30;;;16.80;54.40;;;;;;5005853;27;96069;-73
2022/01/17 03:22:09;;;;;;;64.63;52.17;;;16.80;54.10;;;;;;5011445;27;96478;-73
2022/01/17 03:24:34;;;;;;;66.50;52.72;;;16.80;54.40;;;;;;5013068;27;95132;-73
2022/01/17 03:27:00;;;;;;;65.78;52.35;;;16.70;54.30;;;;;;5013422;27;96014;-73
2022/01/17 03:29:25;;;;;;;65.50;52.45;;;16.70;54.40;;;;;;5014343;27;94648;-73
2022/01/17 03:31:51;;;;;;;64.68;52.25;;;16.80;54.40;;;;;;4990116;27;97679;-73
2022/01/17 03:34:17;;;;;;;65.93;52.85;;;16.80;54.50;;;;;;5000781;27;95977;-72
2022/01/17 03:36:44;;;;;;;65.75;52.40;;;16.70;54.40;;;;;;5011056;27;94691;-73
2022/01/17 03:39:10;;;;;;;65.20;52.53;;;16.70;54.20;;;;;;5002325;27;97183;-71
2022/01/17 03:41:36;;;;;;;63.92;51.88;;;16.70;54.30;;;;;;4991676;28;95154;-73
2022/01/17 03:44:02;;;;;;;63.88;52.33;;;16.70;54.30;;;;;;5008055;27;95292;-73
2022/01/17 03:46:28;;;;;;;63.92;52.08;;;16.70;54.20;;;;;;4998579;27;95060;-73
2022/01/17 03:48:54;;;;;;;64.53;52.28;;;16.70;54.50;;;;;;5010402;27;95142;-73
2022/01/17 03:51:19;;;;;;;65.20;52.25;;;16.70;54.40;;;;;;5009795;27;96132;-73
2022/01/17 03:53:45;;;;;;;64.88;52.10;;;16.70;54.70;;;;;;5009338;27;96005;-73
2022/01/17 03:56:11;;;;;;;63.65;52.25;;;16.70;55.30;;;;;;4996780;27;94997;-73
2022/01/17 03:58:36;;;;;;;65.50;52.08;;;16.70;54.50;;;;;;5003698;27;95110;-73
2022/01/17 04:01:03;;;;;;;64.82;52.13;;;16.80;54.60;;;;;;5008283;27;95642;-73
2022/01/17 04:03:29;;;;;;;65.50;52.20;;;16.90;54.50;;;;;;5013397;27;95378;-73
2022/01/17 04:06:09;;;;;;;64.25;51.35;;;17.00;54.40;;;;;;1064515;27;10107825;-73
2022/01/17 04:08:35;;;;;;;63.67;51.67;;;17.20;54.20;;;;;;4667095;27;10095668;-73
2022/01/17 04:11:01;;;;;;;66.03;52.45;;;17.20;54.00;;;;;;5008872;27;95566;-73
2022/01/17 04:13:27;;;;;;;64.85;51.83;;;17.30;53.80;;;;;;5010066;27;94909;-73
2022/01/17 04:15:52;;;;;;;65.90;52.20;;;17.40;53.50;;;;;;5012695;27;96566;-73
2022/01/17 04:18:23;;;;;;;64.47;52.13;;;17.50;53.40;;;;;;5015197;27;95043;-73
2022/01/17 04:20:49;;;;;;;65.43;52.47;;;17.60;53.10;;;;;;4991508;28;98123;-73
2022/01/17 04:23:15;;;;;;;64.82;51.90;;;17.70;53.10;;;;;;5012679;27;95960;-72
2022/01/17 04:25:42;;;;;;;64.05;52.00;;;17.80;52.70;;;;;;5016875;27;95509;-73
2022/01/17 04:28:10;;;;;;;64.38;52.03;;;17.80;52.50;;;;;;4994851;27;96770;-73
2022/01/17 04:30:36;;;;;;;62.90;51.58;;;17.90;52.50;;;;;;5012323;27;95948;-73
2022/01/17 04:33:02;;;;;;;64.35;52.25;;;17.90;52.30;;;;;;5015789;27;94670;-73
2022/01/17 04:35:29;;;;;;;65.10;52.67;;;17.90;52.40;;;;;;4990295;28;95920;-73
2022/01/17 04:38:10;;;;;;;65.45;52.00;;;18.00;51.80;;;;;;5020895;27;96805;-73
2022/01/17 04:40:38;;;;;;;65.13;51.70;;;18.00;52.00;;;;;;5010935;27;95977;-73
2022/01/17 04:43:16;;;;;;;64.13;51.63;;;18.00;51.80;;;;;;5011138;27;96261;-72
2022/01/17 04:45:41;;;;;;;63.67;51.83;;;18.00;51.80;;;;;;5010921;27;96100;-73
2022/01/17 04:48:07;;;;;;;63.30;51.60;;;18.00;51.90;;;;;;4995566;27;96857;-73
2022/01/17 04:50:33;;;;;;;63.22;51.47;;;18.00;51.70;;;;;;5012001;27;94972;-73
2022/01/17 04:53:00;;;;;;;63.58;51.80;;;18.00;51.80;;;;;;5016188;27;94896;-73
2022/01/17 04:55:27;;;;;;;63.20;51.53;;;18.00;51.80;;;;;;4986985;28;95370;-73
2022/01/17 04:57:53;;;;;;;64.55;51.90;;;18.00;51.80;;;;;;5007289;27;95889;-73
2022/01/17 05:00:20;;;;;;;64.32;51.53;;;18.00;51.80;;;;;;5001833;27;97309;-73
2022/01/17 05:02:46;;;;;;;65.45;52.17;;;18.00;51.70;;;;;;5006198;27;95868;-73
2022/01/17 05:05:13;;;;;;;65.97;52.40;;;17.90;51.70;;;;;;5009688;27;96583;-73
2022/01/17 05:07:39;;;;;;;63.10;51.10;;;17.90;51.80;;;;;;5013757;27;98454;-73
2022/01/17 05:10:09;;;;;;;64.28;51.47;;;17.90;51.90;;;;;;5014343;27;95095;-73
2022/01/17 05:12:35;;;;;;;63.90;51.85;;;17.90;51.90;;;;;;5009279;27;96851;-73
2022/01/17 05:15:01;;;;;;;64.47;51.78;;;17.90;51.70;;;;;;5006125;27;96043;-73
2022/01/17 05:19:57;;;;;;;65.03;52.05;;;17.80;51.70;;;;;;5006837;27;95370;-73
2022/01/17 05:22:25;;;;;;;62.77;51.27;;;17.80;51.80;;;;;;5016964;27;94733;-72
2022/01/17 05:24:51;;;;;;;63.35;51.55;;;17.80;52.00;;;;;;5006257;27;96538;-72
2022/01/17 05:27:17;;;;;;;63.10;51.30;;;17.80;52.10;;;;;;4986622;28;97043;-71
2022/01/17 05:29:43;;;;;;;64.90;51.75;;;17.70;52.20;;;;;;5013649;27;97032;-71
2022/01/17 05:32:08;;;;;;;64.90;51.95;;;17.70;52.20;;;;;;5015410;27;95622;-72
2022/01/17 05:34:40;;;;;;;63.72;51.83;;;17.80;52.90;;;;;;5019214;27;94881;-71
2022/01/17 05:37:06;;;;;;;63.00;51.15;;;17.80;52.70;;;;;;4997739;27;97594;-72
2022/01/17 05:39:32;;;;;;;63.80;52.03;;;17.90;52.50;;;;;;5000666;27;95230;-72
2022/01/17 05:41:58;;;;;;;64.20;52.17;;;18.00;52.40;;;;;;5011164;27;94990;-73
2022/01/17 05:44:23;;;;;;;65.85;52.38;;;18.10;52.20;;;;;;5013666;27;95113;-72
2022/01/17 05:46:49;;;;;;;65.22;52.28;;;18.30;52.30;;;;;;5003882;27;94086;-73
2022/01/17 05:49:15;;;;;;;63.15;51.10;;;18.40;52.00;;;;;;5012513;27;94950;-73
2022/01/17 05:51:40;;;;;;;64.72;51.40;;;18.50;52.50;;;;;;5015612;27;98108;-73
2022/01/17 05:54:06;;;;;;;63.95;51.65;;;18.60;51.50;;;;;;4993647;27;96018;-74
2022/01/17 05:56:33;;;;;;;64.43;51.72;;;18.70;51.20;;;;;;5007736;27;95806;-72
2022/01/17 05:58:58;;;;;;;63.80;51.55;;;18.80;51.50;;;;;;5011236;27;97781;-72
2022/01/17 06:01:24;;;;;;;66.13;51.60;;;18.90;51.30;;;;;;5003545;27;94978;-72
2022/01/17 06:03:50;;;;;;;68.90;53.40;;;19.00;50.90;;;;;;5008627;27;95282;-72
2022/01/17 06:06:16;;;;;;;65.90;51.67;;;19.10;50.70;;;;;;5002737;27;95187;-73
2022/01/17 06:08:42;;;;;;;64.88;50.97;;;19.10;50.70;;;;;;5000008;27;96459;-72
2022/01/17 06:11:08;;;;;;;63.72;51.28;;;19.20;50.60;;;;;;4989554;27;95345;-72
2022/01/17 06:13:34;;;;;;;64.03;51.42;;;19.20;50.30;;;;;;5010910;27;96770;-72
2022/01/17 06:15:59;;;;;;;66.25;52.20;;;19.30;50.40;;;;;;5012848;27;96242;-71
2022/01/17 06:18:25;;;;;;;65.55;52.03;;;19.30;50.40;;;;;;4999264;27;96858;-72
2022/01/17 06:20:51;;;;;;;65.95;51.63;;;19.30;50.20;;;;;;5008164;27;96261;-72
2022/01/17 06:23:16;;;;;;;65.10;51.38;;;19.30;50.10;;;;;;4987906;27;95205;-70
2022/01/17 06:25:42;;;;;;;64.75;51.40;;;19.30;50.20;;;;;;5006456;27;96210;-69
2022/01/17 06:28:08;;;;;;;64.95;51.60;;;19.30;50.20;;;;;;4997564;27;95712;-67
2022/01/17 06:30:34;;;;;;;65.65;51.35;;;19.30;50.10;;;;;;5010919;27;96405;-69
2022/01/17 06:33:02;;;;;;;65.35;51.40;;;19.30;50.10;;;;;;5011298;27;94556;-70
2022/01/17 06:35:28;;;;;;;67.93;52.40;;;19.30;50.10;;;;;;4994051;27;96396;-69
2022/01/17 06:37:54;;;;;;;64.45;51.60;;;19.30;50.40;;;;;;4992934;27;95442;-72
2022/01/17 06:40:20;;;;;;;67.40;51.53;;;19.20;50.10;;;;;;4990731;27;96194;-72
2022/01/17 06:42:46;;;;;;;67.45;51.58;;;19.10;51.00;;;;;;5005096;27;96796;-70
2022/01/17 06:45:13;;;;;;;66.75;52.60;;;18.90;51.20;;;;;;5001908;27;95010;-71
2022/01/17 06:47:39;;;;;;;63.90;51.85;;;18.90;51.40;;;;;;5015706;27;95569;-72
2022/01/17 06:50:06;;;;;;;63.90;51.33;;;18.90;51.50;;;;;;5017668;27;96573;-71
2022/01/17 06:52:38;;;;;;;;;;;18.90;51.30;;;;;;3705132;27;10109816;-70
2022/01/17 06:55:04;;;;;;;67.15;51.60;;;18.80;51.20;;;;;;1705587;27;10096695;-70
2022/01/17 06:57:30;;;;;;;64.25;51.55;;;18.80;51.20;;;;;;5008133;27;95792;-69
2022/01/17 06:59:55;;;;;;;64.05;51.38;;;18.70;51.40;;;;;;5009758;27;94888;-67
2022/01/17 07:02:21;;;;;;;65.75;51.92;;;18.70;51.50;;;;;;5004408;27;96097;-69
2022/01/17 07:04:47;;;;;;;70.50;52.42;;;18.70;51.90;;;;;;5003251;27;96576;-70
2022/01/17 07:07:13;;;;;;;67.53;52.45;;;18.80;52.20;;;;;;4994196;27;97746;-70
2022/01/17 07:09:38;;;;;;;66.60;51.97;;;18.80;52.50;;;;;;4997750;27;97195;-68
2022/01/17 07:12:05;;;;;;;65.70;52.03;;;18.80;52.50;;;;;;5010635;27;96267;-67
2022/01/17 07:14:31;;;;;;;66.40;51.50;;;18.80;52.40;;;;;;5003424;27;95579;-67
2022/01/17 07:16:57;;;;;;;67.15;52.40;;;18.90;52.60;;;;;;4997628;27;103461;-67
2022/01/17 07:19:24;;;;;;;65.75;52.65;;;18.80;51.70;;;;;;5009248;27;95231;-68
2022/01/17 07:21:50;;;;;;;66.07;52.65;;;18.80;53.10;;;;;;5009720;27;94816;-67
2022/01/17 07:24:16;;;;;;;64.70;51.90;;;18.80;53.30;;;;;;5023374;27;94229;-69
2022/01/17 07:26:42;;;;;;;67.10;51.45;;;18.80;52.70;;;;;;5015756;27;97065;-68
2022/01/17 07:29:08;;;;;;;66.45;52.33;;;18.80;52.40;;;;;;5017014;27;94845;-69
2022/01/17 07:31:35;;;;;;;66.60;51.90;;;18.80;52.20;;;;;;5018500;27;96610;-69
2022/01/17 07:34:01;;;;;;;67.00;52.22;;;18.80;52.20;;;;;;5009603;27;95066;-70
2022/01/17 07:36:27;;;;;;;66.65;51.95;;;18.80;52.40;;;;;;5001652;27;95830;-70
2022/01/17 07:38:53;;;;;;;68.50;52.10;;;18.90;52.10;;;;;;5003596;27;95362;-70
2022/01/17 07:41:18;;;;;;;65.85;52.13;;;18.90;51.90;;;;;;4999203;27;96094;-70
2022/01/17 07:43:44;;;;;;;69.85;52.67;;;18.90;51.80;;;;;;5007871;27;102842;-70
2022/01/17 07:46:25;;;;;;;69.38;51.90;;;18.90;51.80;;;;;;4993571;27;98979;-72
2022/01/17 07:49:10;;;;;;;68.55;52.30;;;18.90;51.70;;;;;;5011398;27;98697;-72
2022/01/17 07:51:43;;;;;;;66.82;52.47;;;18.90;51.60;;;;;;5013894;27;95153;-71
2022/01/17 07:54:11;;;;;;;69.55;52.65;;;18.90;51.60;;;;;;5011621;27;95077;-71
2022/01/17 07:56:38;;;;;;;69.10;52.55;;;18.90;51.60;;;;;;5015001;27;96274;-70
2022/01/17 07:59:05;;;;;;;67.82;52.83;;;18.90;51.80;;;;;;5013562;27;94973;-71
2022/01/17 08:01:31;;;;;;;70.75;52.80;;;18.90;51.90;;;;;;5013278;27;94879;-68
2022/01/17 08:03:57;;;;;;;69.10;52.63;;;18.90;52.30;;;;;;5013708;27;95434;-69
2022/01/17 08:06:22;;;;;;;68.70;52.75;;;18.90;52.40;;;;;;5013018;27;102134;-69
2022/01/17 08:08:48;;;;;;;69.45;53.03;;;18.90;52.10;;;;;;5021022;27;95400;-68
2022/01/17 08:11:15;;;;;;;69.38;53.15;;;18.90;52.10;;;;;;5014815;27;94848;-68
2022/01/17 08:13:41;;;;;;;68.38;52.90;;;18.80;52.40;;;;;;5011761;27;96187;-69
2022/01/17 08:16:07;;;;;;;68.47;53.03;;;18.80;52.50;;;;;;5012300;27;95908;-70
2022/01/17 08:18:33;;;;;;;69.03;52.53;;;18.80;52.50;;;;;;4990091;27;95184;-71
2022/01/17 08:20:59;;;;;;;70.57;52.63;;;18.80;52.70;;;;;;5010967;27;96356;-70
2022/01/17 08:23:25;;;;;;;71.07;52.88;;;18.80;52.80;;;;;;4996752;28;95888;-68
2022/01/17 08:25:51;;;;;;;67.63;52.38;;;18.80;52.90;;;;;;5010659;27;97509;-69
2022/01/17 08:28:17;;;;;;;68.65;52.90;;;18.80;53.00;;;;;;4990940;27;95821;-69
2022/01/17 08:30:42;;;;;;;67.22;52.33;;;18.70;53.00;;;;;;5008088;27;94944;-70
2022/01/17 08:33:08;;;;;;;70.90;52.67;;;18.70;53.00;;;;;;5019427;27;94620;-70
2022/01/17 08:35:34;;;;;;;66.93;52.40;;;18.70;53.20;;;;;;5008349;27;100858;-70
2022/01/17 08:38:00;;;;;;;70.50;53.08;;;18.70;53.30;;;;;;5012050;27;95258;-69
2022/01/17 08:40:26;;;;;;;71.57;52.65;;;18.70;52.80;;;;;;4996216;27;97356;-69
2022/01/17 08:42:52;;;;;;;68.75;52.63;;;18.70;52.70;;;;;;5018210;27;101307;-68
2022/01/17 08:45:21;;;;;;;71.03;53.03;;;18.70;53.00;;;;;;4991700;28;97069;-70
2022/01/17 08:47:49;;;;;;;67.18;52.92;;;18.70;53.00;;;;;;5012951;27;95098;-70
2022/01/17 08:50:17;;;;;;;70.03;52.65;;;18.70;53.10;;;;;;4999103;28;94975;-68
2022/01/17 08:52:47;;;;;;;68.22;53.13;;;18.70;53.70;;;;;;4999161;28;94869;-69
2022/01/17 08:55:14;;;;;;;68.68;52.67;;;18.70;53.10;;;;;;5005759;27;96024;-69
2022/01/17 08:57:40;;;;;;;66.88;52.55;;;18.70;53.20;;;;;;4986488;27;95586;-69
2022/01/17 09:00:11;;;;;;;67.82;52.63;;;18.70;53.50;;;;;;4984692;27;95696;-69
2022/01/17 09:02:38;;;;;;;68.10;52.88;;;18.70;53.10;;;;;;4980061;27;95167;-69
2022/01/17 09:05:05;;;;;;;69.00;53.08;;;18.70;52.70;;;;;;4967565;27;99352;-72
2022/01/17 09:07:30;;;;;;;68.50;52.88;;;18.70;52.90;;;;;;4984656;27;94991;-70
2022/01/17 09:09:56;;;;;;;69.95;52.47;;;18.70;52.90;;;;;;5011408;27;95892;-69
2022/01/17 09:12:22;;;;;;;68.50;52.65;;;18.60;53.20;;;;;;4985419;27;95501;-70
2022/01/17 09:14:48;;;;;;;68.75;52.25;;;18.60;53.10;;;;;;4983583;27;95398;-70
2022/01/17 09:17:14;;;;;;;69.65;52.25;;;18.60;53.20;;;;;;5005902;27;95204;-69
2022/01/17 09:19:41;;;;;;;68.65;52.83;;;18.60;53.50;;;;;;5005795;27;95865;-70
2022/01/17 09:22:08;;;;;;;68.40;52.90;;;18.60;53.40;;;;;;5013566;27;95124;-70
2022/01/17 09:24:34;;;;;;;67.30;52.22;;;18.60;53.50;;;;;;5017461;27;95677;-70
2022/01/17 09:27:01;;;;;;;67.78;52.97;;;18.60;53.50;;;;;;4999727;27;97160;-70
2022/01/17 09:29:27;;;;;;;67.07;52.72;;;18.60;53.50;;;;;;4990363;28;97517;-70
2022/01/17 09:31:53;;;;;;;66.80;52.60;;;18.60;53.80;;;;;;5014325;27;95506;-70
2022/01/17 09:34:20;;;;;;;66.60;52.00;;;18.60;54.40;;;;;;1307499;28;10118017;-69
2022/01/17 09:36:47;;;;;;;68.68;52.30;;;18.50;53.90;;;;;;3968821;27;10096852;-70
2022/01/17 09:39:13;;;;;;;68.82;52.83;;;18.60;53.80;;;;;;5008032;27;94924;-70
2022/01/17 09:41:39;;;;;;;70.45;53.50;;;18.60;53.80;;;;;;4980922;27;96839;-70
2022/01/17 09:44:06;;;;;;;69.30;52.47;;;18.50;54.00;;;;;;5013981;27;95148;-70
2022/01/17 09:46:38;;;;;;;68.55;53.03;;;18.60;54.40;;;;;;5012854;27;95084;-69
2022/01/17 09:49:23;;;;;;;71.90;53.47;;;18.60;54.10;;;;;;4992536;27;97882;-71
2022/01/17 09:54:26;;;;;;;66.03;51.83;;;18.60;54.20;;;;;;4993294;27;95353;-70
2022/01/17 09:56:53;;;;;;;68.15;52.75;;;18.60;54.40;;;;;;5013250;27;95721;-70
2022/01/17 09:59:19;;;;;;;66.30;52.10;;;18.60;54.10;;;;;;5004566;27;99461;-71
2022/01/17 10:01:45;;;;;;;67.35;52.30;;;18.60;54.10;;;;;;5011721;27;95110;-69
2022/01/17 10:04:11;;;;;;;73.82;53.47;;;18.60;54.10;;;;;;5012068;27;94559;-71
2022/01/17 10:06:39;;;;;;;72.22;53.00;;;18.60;53.90;;;;;;4984672;27;96664;-71
2022/01/17 10:09:21;;;;;;;82.72;53.45;;;18.60;53.40;;;;;;5008651;27;97457;-71
2022/01/17 10:12:08;;;;;;;74.65;53.28;;;18.60;53.70;;;;;;5009526;27;94570;-71
2022/01/17 10:14:40;;;;;;;75.03;53.60;;;18.60;53.50;;;;;;5013845;27;94661;-71
2022/01/17 10:17:10;;;;;;;73.90;53.25;;;18.60;53.20;;;;;;5006121;27;95139;-72
2022/01/17 10:19:36;;;;;;;76.72;53.50;;;18.60;53.30;;;;;;5004386;27;96333;-70
2022/01/17 10:22:10;;;;;;;70.82;52.25;;;18.60;53.20;;;;;;4994269;27;94853;-72
2022/01/17 10:35:27;;;;;;;71.70;51.50;;;18.90;54.60;;;;;;5007152;27;95654;-71
2022/01/17 10:38:04;;;;;;;72.70;52.17;;;19.00;54.50;;;;;;5012353;27;96634;-72
2022/01/17 10:40:56;;;;;;;73.05;51.97;;;19.20;54.20;;;;;;5012316;27;95213;-72
2022/01/17 10:43:34;;;;;;;73.88;52.65;;;19.40;54.20;;;;;;5007174;27;95103;-72
2022/01/17 10:46:00;;;;;;;74.38;52.45;;;19.60;53.40;;;;;;5006854;27;95221;-72
2022/01/17 10:48:32;;;;;;;72.70;52.38;;;19.80;52.90;;;;;;4989762;27;101344;-70
2022/01/17 10:50:58;;;;;;;76.10;52.58;;;20.00;52.90;;;;;;5013339;27;96324;-72
2022/01/17 10:53:23;;;;;;;75.38;52.80;;;20.10;52.70;;;;;;5002826;27;94751;-72
2022/01/17 10:55:59;;;;;;;73.80;52.70;;;20.30;51.90;;;;;;5006517;27;95079;-72
2022/01/17 10:58:32;;;;;;;72.93;52.30;;;20.40;51.50;;;;;;5011192;27;95264;-72
2022/01/17 11:01:00;;;;;;;72.13;52.40;;;20.50;51.20;;;;;;5007126;27;95024;-72
2022/01/17 11:03:29;;;;;;;75.47;52.60;;;20.60;51.00;;;;;;4988896;27;94707;-72
2022/01/17 11:05:57;;;;;;;74.22;52.67;;;20.60;50.50;;;;;;5007590;27;97940;-72
2022/01/17 11:08:28;;;;;;;76.20;52.53;;;20.60;50.20;;;;;;5009933;27;94645;-72
2022/01/17 11:10:58;;;;;;;76.40;52.42;;;20.60;50.00;;;;;;5016387;27;96239;-73
2022/01/17 11:13:31;;;;;;;75.78;52.50;;;20.60;50.30;;;;;;5018019;27;95748;-73
2022/01/17 11:16:04;;;;;;;73.30;52.28;;;20.60;50.00;;;;;;5018549;27;97412;-73
2022/01/17 11:18:31;;;;;;;72.13;52.15;;;20.70;50.40;;;;;;5010675;27;96449;-73
2022/01/17 11:21:05;;;;;;;72.93;52.10;;;20.70;49.80;;;;;;5007017;27;96188;-72
2022/01/17 11:23:32;;;;;;;74.70;52.15;;;20.70;50.10;;;;;;5016968;27;95427;-73
2022/01/17 11:25:58;;;;;;;73.43;51.92;;;20.70;49.50;;;;;;5018181;27;94876;-73
2022/01/17 11:28:34;;;;;;;73.97;52.10;;;20.70;49.80;;;;;;5009899;27;95111;-73
2022/01/17 11:31:07;;;;;;;74.13;52.25;;;20.60;49.60;;;;;;5017221;27;95039;-73
2022/01/17 11:33:35;;;;;;;73.28;52.13;;;20.70;49.60;;;;;;5016418;27;94069;-73
2022/01/17 11:36:01;;;;;;;74.50;52.38;;;20.70;49.30;;;;;;5002179;27;95021;-73
2022/01/17 11:38:31;;;;;;;73.90;52.15;;;20.60;49.10;;;;;;5000845;27;95368;-73
2022/01/17 11:40:58;;;;;;;78.90;52.50;;;20.60;49.30;;;;;;5016554;27;97205;-73
2022/01/17 11:43:35;;;;;;;73.95;52.45;;;20.60;49.00;;;;;;5016381;27;95644;-73
2022/01/17 11:46:09;;;;;;;75.97;52.65;;;20.60;49.40;;;;;;5007017;27;95138;-73
2022/01/17 11:48:34;;;;;;;76.05;52.58;;;20.50;48.90;;;;;;5005492;27;95475;-73
2022/01/17 11:51:15;;;;;;;76.22;52.95;;;20.40;48.60;;;;;;5013875;27;95189;-74
2022/01/17 11:53:44;;;;;;;75.85;52.95;;;20.30;48.70;;;;;;5017263;27;94478;-74
2022/01/17 11:56:14;;;;;;;74.80;52.47;;;20.20;48.80;;;;;;5019497;27;97081;-73
2022/01/17 11:58:41;;;;;;;76.40;52.80;;;20.10;49.00;;;;;;5016668;27;96286;-73
2022/01/17 12:01:20;;;;;;;75.60;52.75;;;20.10;48.90;;;;;;5013777;27;95425;-73
2022/01/17 12:03:53;;;;;;;75.22;52.70;;;20.00;48.80;;;;;;5018720;27;94987;-73
2022/01/17 12:06:36;;;;;;;77.55;52.30;;;19.90;49.20;;;;;;976903;27;10098822;-74
2022/01/17 12:09:22;;;;;;;74.32;52.15;;;19.90;49.20;;;;;;4651524;27;10088678;-74
2022/01/17 12:12:09;;;;;;;77.57;52.58;;;19.80;49.40;;;;;;5009568;27;94480;-74
2022/01/17 12:14:37;;;;;;;75.30;52.13;;;19.80;49.30;;;;;;5002912;27;95410;-73
2022/01/17 12:17:25;;;;;;;74.55;52.05;;;19.70;49.30;;;;;;5021025;27;95769;-74
2022/01/17 12:20:06;;;;;;;75.82;52.88;;;19.60;49.50;;;;;;5020309;27;95844;-73
2022/01/17 12:22:38;;;;;;;75.90;52.05;;;19.60;49.60;;;;;;5020269;27;95288;-73
2022/01/17 12:25:26;;;;;;;72.65;52.17;;;19.60;49.40;;;;;;5015131;27;94039;-74
2022/01/17 12:28:17;;;;;;;74.53;52.28;;;19.50;49.50;;;;;;5016599;27;95522;-73
2022/01/17 12:30:56;;;;;;;73.28;52.17;;;19.60;49.60;;;;;;5018917;27;97767;-73
2022/01/17 12:33:28;;;;;;;76.72;52.10;;;19.40;49.60;;;;;;5009181;27;97329;-74
2022/01/17 12:36:17;;;;;;;72.85;51.97;;;19.40;49.90;;;;;;5002894;27;95031;-73
2022/01/17 12:38:43;;;;;;;76.22;52.72;;;19.40;49.80;;;;;;5017945;27;96591;-73
2022/01/17 12:41:33;;;;;;;75.63;52.33;;;19.40;49.90;;;;;;4994087;27;96127;-74
2022/01/17 12:43:59;;;;;;;74.75;52.35;;;19.40;49.80;;;;;;5012555;27;96161;-73
2022/01/17 12:46:25;;;;;;;75.15;52.17;;;19.40;50.30;;;;;;5008577;27;97489;-74
2022/01/17 12:48:52;;;;;;;76.65;52.60;;;19.30;50.70;;;;;;5008654;27;96972;-74
2022/01/17 12:51:18;;;;;;;75.05;52.25;;;19.30;51.00;;;;;;5005898;27;95874;-73
2022/01/17 12:53:51;;;;;;;79.03;52.60;;;19.30;51.00;;;;;;4987701;27;100400;-74
2022/01/17 12:56:17;;;;;;;76.18;52.85;;;19.30;50.90;;;;;;5004074;27;95328;-73
2022/01/17 12:58:44;;;;;;;77.32;52.58;;;19.30;51.50;;;;;;4996682;27;96612;-74